createdAt,value
2017-12-27T00:00:32.011Z,21.37
2017-12-27T00:01:32.013Z,21.32
2017-12-27T00:02:32.015Z,21.34
2017-12-27T00:03:32.016Z,21.34
2017-12-27T00:04:32.022Z,21.31
2017-12-27T00:05:32.020Z,21.31
2017-12-27T00:06:32.021Z,21.38
2017-12-27T00:07:32.024Z,21.44
2017-12-27T00:08:32.029Z,21.34
2017-12-27T00:09:32.028Z,21.40
2017-12-27T00:10:32.029Z,21.40
2017-12-27T00:11:32.031Z,21.40
2017-12-27T00:12:32.034Z,21.38
2017-12-27T00:13:32.035Z,21.32
2017-12-27T00:14:32.039Z,21.35
2017-12-27T00:15:32.040Z,21.42
2017-12-27T00:16:32.040Z,21.44
2017-12-27T00:17:32.048Z,21.37
2017-12-27T00:18:32.043Z,21.31
2017-12-27T00:19:32.048Z,21.43
2017-12-27T00:20:32.047Z,21.34
2017-12-27T00:21:32.049Z,21.35
2017-12-27T00:22:32.051Z,21.37
2017-12-27T00:23:32.058Z,21.37
2017-12-27T00:24:32.056Z,21.29
2017-12-27T00:25:32.056Z,21.43
2017-12-27T00:26:32.057Z,21.35
2017-12-27T00:27:32.061Z,21.25
2017-12-27T00:28:32.062Z,21.44
2017-12-27T00:29:32.065Z,21.35
2017-12-27T00:30:32.065Z,21.38
2017-12-27T00:31:32.068Z,21.40
2017-12-27T00:32:32.070Z,21.40
2017-12-27T00:33:32.070Z,21.32
2017-12-27T00:34:32.072Z,21.35
2017-12-27T00:35:32.079Z,21.32
2017-12-27T00:36:32.076Z,21.32
2017-12-27T00:37:32.077Z,21.34
2017-12-27T00:38:32.080Z,21.40
2017-12-27T00:39:32.082Z,21.40
2017-12-27T00:40:32.083Z,21.42
2017-12-27T00:41:32.085Z,21.34
2017-12-27T00:42:32.087Z,21.35
2017-12-27T00:43:32.090Z,21.29
2017-12-27T00:44:32.091Z,21.34
2017-12-27T00:45:32.092Z,21.25
2017-12-27T00:46:32.094Z,21.31
2017-12-27T00:47:32.096Z,21.31
2017-12-27T00:48:32.098Z,21.40
2017-12-27T00:49:32.099Z,21.38
2017-12-27T00:50:32.105Z,21.34
2017-12-27T00:51:32.103Z,21.37
2017-12-27T00:52:32.106Z,21.35
2017-12-27T00:53:32.113Z,21.24
2017-12-27T00:54:32.108Z,21.29
2017-12-27T00:55:32.110Z,21.43
2017-12-27T00:56:32.112Z,21.35
2017-12-27T00:57:32.114Z,21.31
2017-12-27T00:58:32.118Z,21.29
2017-12-27T00:59:32.119Z,21.42
2017-12-27T01:00:32.121Z,21.27
2017-12-27T01:01:32.120Z,21.32
2017-12-27T01:02:32.123Z,21.38
2017-12-27T01:03:32.125Z,21.31
2017-12-27T01:04:32.127Z,21.27
2017-12-27T01:05:32.128Z,21.32
2017-12-27T01:06:32.130Z,21.35
2017-12-27T01:07:32.133Z,21.37
2017-12-27T01:08:32.134Z,21.35
2017-12-27T01:09:32.135Z,21.37
2017-12-27T01:10:32.137Z,21.37
2017-12-27T01:11:32.139Z,21.28
2017-12-27T01:12:32.141Z,21.24
2017-12-27T01:13:32.142Z,21.22
2017-12-27T01:14:32.145Z,21.34
2017-12-27T01:15:32.147Z,21.24
2017-12-27T01:16:32.149Z,21.21
2017-12-27T01:17:32.152Z,21.22
2017-12-27T01:18:32.151Z,21.38
2017-12-27T01:19:32.153Z,21.34
2017-12-27T01:20:32.155Z,21.37
2017-12-27T01:21:32.156Z,21.25
2017-12-27T01:22:32.158Z,21.28
2017-12-27T01:23:32.161Z,21.34
2017-12-27T01:24:32.162Z,21.29
2017-12-27T01:25:32.164Z,21.22
2017-12-27T01:26:32.166Z,21.25
2017-12-27T01:27:32.169Z,21.27
2017-12-27T01:28:32.168Z,21.27
2017-12-27T01:29:32.172Z,21.22
2017-12-27T01:30:32.174Z,21.27
2017-12-27T01:31:32.176Z,21.22
2017-12-27T01:32:32.186Z,21.28
2017-12-27T01:33:32.178Z,21.31
2017-12-27T01:34:32.180Z,21.25
2017-12-27T01:35:32.184Z,21.31
2017-12-27T01:36:32.185Z,21.24
2017-12-27T01:37:32.185Z,21.24
2017-12-27T01:38:32.187Z,21.24
2017-12-27T01:39:32.189Z,21.24
2017-12-27T01:40:32.191Z,21.24
2017-12-27T01:41:32.191Z,21.24
2017-12-27T01:42:32.194Z,21.27
2017-12-27T01:43:32.196Z,21.22
2017-12-27T01:44:32.198Z,21.27
2017-12-27T01:45:32.199Z,21.28
2017-12-27T01:46:32.200Z,21.21
2017-12-27T01:47:32.203Z,21.28
2017-12-27T01:48:32.205Z,21.28
2017-12-27T01:49:32.206Z,21.24
2017-12-27T01:50:32.207Z,21.22
2017-12-27T01:51:32.210Z,21.27
2017-12-27T01:52:32.215Z,21.24
2017-12-27T01:53:32.212Z,21.29
2017-12-27T01:54:32.215Z,21.28
2017-12-27T01:55:32.217Z,21.25
2017-12-27T01:56:32.219Z,21.28
2017-12-27T01:57:32.220Z,21.25
2017-12-27T01:58:32.222Z,21.29
2017-12-27T01:59:32.224Z,21.25
2017-12-27T02:00:32.225Z,21.29
2017-12-27T02:01:32.227Z,21.22
2017-12-27T02:02:32.229Z,21.19
2017-12-27T02:03:32.231Z,21.24
2017-12-27T02:04:32.232Z,21.21
2017-12-27T02:05:32.233Z,21.22
2017-12-27T02:06:32.235Z,21.24
2017-12-27T02:07:32.238Z,21.21
2017-12-27T02:08:32.240Z,21.21
2017-12-27T02:09:32.242Z,21.21
2017-12-27T02:10:32.245Z,21.27
2017-12-27T02:11:32.244Z,21.21
2017-12-27T02:12:32.246Z,21.22
2017-12-27T02:13:32.249Z,21.25
2017-12-27T02:14:32.250Z,21.25
2017-12-27T02:15:32.252Z,21.19
2017-12-27T02:16:32.253Z,21.19
2017-12-27T02:17:32.257Z,21.22
2017-12-27T02:18:32.256Z,21.24
2017-12-27T02:19:32.260Z,21.22
2017-12-27T02:20:32.260Z,21.19
2017-12-27T02:21:32.263Z,21.29
2017-12-27T02:22:32.264Z,21.24
2017-12-27T02:23:32.265Z,21.19
2017-12-27T02:24:32.267Z,21.19
2017-12-27T02:25:32.268Z,21.21
2017-12-27T02:26:32.271Z,21.24
2017-12-27T02:27:32.272Z,21.19
2017-12-27T02:28:32.274Z,21.22
2017-12-27T02:29:32.276Z,21.19
2017-12-27T02:30:32.277Z,21.17
2017-12-27T02:31:32.279Z,21.17
2017-12-27T02:32:32.282Z,21.13
2017-12-27T02:33:32.282Z,21.17
2017-12-27T02:34:32.284Z,21.16
2017-12-27T02:35:32.286Z,21.17
2017-12-27T02:36:32.288Z,21.24
2017-12-27T02:37:32.289Z,21.19
2017-12-27T02:38:32.291Z,21.24
2017-12-27T02:39:32.293Z,21.21
2017-12-27T02:40:32.296Z,21.12
2017-12-27T02:41:32.296Z,21.16
2017-12-27T02:42:32.297Z,21.16
2017-12-27T02:43:32.300Z,21.14
2017-12-27T02:44:32.302Z,21.24
2017-12-27T02:45:32.302Z,21.22
2017-12-27T02:46:32.304Z,21.21
2017-12-27T02:47:32.313Z,21.13
2017-12-27T02:48:32.309Z,21.24
2017-12-27T02:49:32.309Z,21.13
2017-12-27T02:50:32.311Z,21.21
2017-12-27T02:51:32.313Z,21.19
2017-12-27T02:52:32.316Z,21.17
2017-12-27T02:53:32.316Z,21.19
2017-12-27T02:54:32.318Z,21.16
2017-12-27T02:55:32.320Z,21.14
2017-12-27T02:56:32.322Z,21.17
2017-12-27T02:57:32.324Z,21.09
2017-12-27T02:58:32.326Z,21.16
2017-12-27T02:59:32.326Z,21.16
2017-12-27T03:00:32.337Z,21.13
2017-12-27T03:01:32.331Z,21.19
2017-12-27T03:02:32.332Z,21.16
2017-12-27T03:03:32.334Z,21.14
2017-12-27T03:04:32.343Z,21.09
2017-12-27T03:05:32.343Z,21.19
2017-12-27T03:06:32.340Z,21.14
2017-12-27T03:07:32.341Z,21.13
2017-12-27T03:08:32.343Z,21.16
2017-12-27T03:09:32.343Z,21.19
2017-12-27T03:10:32.345Z,21.17
2017-12-27T03:11:32.347Z,21.13
2017-12-27T03:12:32.349Z,21.17
2017-12-27T03:13:32.359Z,21.17
2017-12-27T03:14:32.351Z,21.12
2017-12-27T03:15:32.354Z,21.14
2017-12-27T03:16:32.357Z,21.14
2017-12-27T03:17:32.357Z,21.21
2017-12-27T03:18:32.362Z,21.12
2017-12-27T03:19:32.360Z,21.12
2017-12-27T03:20:32.362Z,21.13
2017-12-27T03:21:32.363Z,21.13
2017-12-27T03:22:32.372Z,21.13
2017-12-27T03:23:32.367Z,21.16
2017-12-27T03:24:32.369Z,21.16
2017-12-27T03:25:32.370Z,21.14
2017-12-27T03:26:32.374Z,21.17
2017-12-27T03:27:32.374Z,21.13
2017-12-27T03:28:32.376Z,21.21
2017-12-27T03:29:32.376Z,21.16
2017-12-27T03:30:32.379Z,21.14
2017-12-27T03:31:32.379Z,21.17
2017-12-27T03:32:32.386Z,21.14
2017-12-27T03:33:32.383Z,21.16
2017-12-27T03:34:32.386Z,21.14
2017-12-27T03:35:32.387Z,21.17
2017-12-27T03:36:32.389Z,21.19
2017-12-27T03:37:32.391Z,21.16
2017-12-27T03:38:32.392Z,21.16
2017-12-27T03:39:32.399Z,21.24
2017-12-27T03:40:32.396Z,21.12
2017-12-27T03:41:32.397Z,21.16
2017-12-27T03:42:32.399Z,21.22
2017-12-27T03:43:32.401Z,21.16
2017-12-27T03:44:32.403Z,21.16
2017-12-27T03:45:32.402Z,21.14
2017-12-27T03:46:32.405Z,21.21
2017-12-27T03:47:32.410Z,21.12
2017-12-27T03:48:32.410Z,21.19
2017-12-27T03:49:32.416Z,21.07
2017-12-27T03:50:32.412Z,21.14
2017-12-27T03:51:32.422Z,21.14
2017-12-27T03:52:32.416Z,21.21
2017-12-27T03:53:32.417Z,21.16
2017-12-27T03:54:32.419Z,21.14
2017-12-27T03:55:32.420Z,21.13
2017-12-27T03:56:32.424Z,21.06
2017-12-27T03:57:32.424Z,21.12
2017-12-27T03:58:32.432Z,21.07
2017-12-27T03:59:32.432Z,21.09
2017-12-27T04:00:32.432Z,21.16
2017-12-27T04:01:32.434Z,21.06
2017-12-27T04:02:32.436Z,21.10
2017-12-27T04:03:32.437Z,21.06
2017-12-27T04:04:32.438Z,21.07
2017-12-27T04:05:32.436Z,21.10
2017-12-27T04:06:32.438Z,21.09
2017-12-27T04:07:32.444Z,21.09
2017-12-27T04:08:32.443Z,21.09
2017-12-27T04:09:32.444Z,21.12
2017-12-27T04:10:32.446Z,21.10
2017-12-27T04:11:32.447Z,21.14
2017-12-27T04:12:32.449Z,21.12
2017-12-27T04:13:32.450Z,21.07
2017-12-27T04:14:32.452Z,21.14
2017-12-27T04:15:32.455Z,21.12
2017-12-27T04:16:32.456Z,21.16
2017-12-27T04:17:32.457Z,21.14
2017-12-27T04:18:32.459Z,21.16
2017-12-27T04:19:32.462Z,21.10
2017-12-27T04:20:32.463Z,21.14
2017-12-27T04:21:32.464Z,21.16
2017-12-27T04:22:32.466Z,21.12
2017-12-27T04:23:32.468Z,21.16
2017-12-27T04:24:32.470Z,21.21
2017-12-27T04:25:32.471Z,21.24
2017-12-27T04:26:32.475Z,21.14
2017-12-27T04:27:32.475Z,21.16
2017-12-27T04:28:32.475Z,21.17
2017-12-27T04:29:32.478Z,21.16
2017-12-27T04:30:32.480Z,21.19
2017-12-27T04:31:32.482Z,21.19
2017-12-27T04:32:32.484Z,21.16
2017-12-27T04:33:32.485Z,21.17
2017-12-27T04:34:32.488Z,21.22
2017-12-27T04:35:32.489Z,21.24
2017-12-27T04:36:32.491Z,21.14
2017-12-27T04:37:32.492Z,21.22
2017-12-27T04:38:32.494Z,21.19
2017-12-27T04:39:32.497Z,21.21
2017-12-27T04:40:32.499Z,21.27
2017-12-27T04:41:32.503Z,21.28
2017-12-27T04:42:32.506Z,21.21
2017-12-27T04:43:32.504Z,21.19
2017-12-27T04:44:32.505Z,21.24
2017-12-27T04:45:32.508Z,21.19
2017-12-27T04:46:32.510Z,21.28
2017-12-27T04:47:32.512Z,21.22
2017-12-27T04:48:32.517Z,21.25
2017-12-27T04:49:32.515Z,21.25
2017-12-27T04:50:32.518Z,21.25
2017-12-27T04:51:32.520Z,21.22
2017-12-27T04:52:32.522Z,21.24
2017-12-27T04:53:32.523Z,21.24
2017-12-27T04:54:32.526Z,21.22
2017-12-27T04:55:32.528Z,21.28
2017-12-27T04:56:32.530Z,21.24
2017-12-27T04:57:32.533Z,21.27
2017-12-27T04:58:32.533Z,21.34
2017-12-27T04:59:32.535Z,21.34
2017-12-27T05:00:32.538Z,21.34
2017-12-27T05:01:32.560Z,21.31
2017-12-27T05:02:32.543Z,21.31
2017-12-27T05:03:32.545Z,21.31
2017-12-27T05:04:32.550Z,21.37
2017-12-27T05:05:32.549Z,21.32
2017-12-27T05:06:32.550Z,21.40
2017-12-27T05:07:32.552Z,21.35
2017-12-27T05:08:32.555Z,21.46
2017-12-27T05:09:32.557Z,21.38
2017-12-27T05:10:32.560Z,21.31
2017-12-27T05:11:32.561Z,21.34
2017-12-27T05:12:32.565Z,21.29
2017-12-27T05:13:32.564Z,21.32
2017-12-27T05:14:32.567Z,21.22
2017-12-27T05:15:32.568Z,21.21
2017-12-27T05:16:32.569Z,21.22
2017-12-27T05:17:32.571Z,21.24
2017-12-27T05:18:32.573Z,21.19
2017-12-27T05:19:32.574Z,21.14
2017-12-27T05:20:32.577Z,21.17
2017-12-27T05:21:32.577Z,21.24
2017-12-27T05:22:32.579Z,21.22
2017-12-27T05:23:32.581Z,21.27
2017-12-27T05:24:32.582Z,21.19
2017-12-27T05:25:32.583Z,21.16
2017-12-27T05:26:32.583Z,21.22
2017-12-27T05:27:32.586Z,21.27
2017-12-27T05:28:32.589Z,21.22
2017-12-27T05:29:32.589Z,21.29
2017-12-27T05:30:32.590Z,21.24
2017-12-27T05:31:32.593Z,21.24
2017-12-27T05:32:32.596Z,21.28
2017-12-27T05:33:32.596Z,21.25
2017-12-27T05:34:32.598Z,21.21
2017-12-27T05:35:32.602Z,21.29
2017-12-27T05:36:32.604Z,21.25
2017-12-27T05:37:32.602Z,21.37
2017-12-27T05:38:32.605Z,21.21
2017-12-27T05:39:32.607Z,21.21
2017-12-27T05:40:32.610Z,21.37
2017-12-27T05:41:32.611Z,21.32
2017-12-27T05:42:32.613Z,21.40
2017-12-27T05:43:32.614Z,21.40
2017-12-27T05:44:32.617Z,21.31
2017-12-27T05:45:32.617Z,21.35
2017-12-27T05:46:32.619Z,21.31
2017-12-27T05:47:32.623Z,21.32
2017-12-27T05:48:32.624Z,21.34
2017-12-27T05:49:32.625Z,21.31
2017-12-27T05:50:32.626Z,21.31
2017-12-27T05:51:32.630Z,21.37
2017-12-27T05:52:32.632Z,21.35
2017-12-27T05:53:32.633Z,21.24
2017-12-27T05:54:32.635Z,21.46
2017-12-27T05:55:32.637Z,21.37
2017-12-27T05:56:32.640Z,21.38
2017-12-27T05:57:32.640Z,21.28
2017-12-27T05:58:32.648Z,21.35
2017-12-27T05:59:32.649Z,21.42
2017-12-27T06:00:32.651Z,21.40
2017-12-27T06:01:32.652Z,21.42
2017-12-27T06:02:32.652Z,21.34
2017-12-27T06:03:32.654Z,21.38
2017-12-27T06:04:32.655Z,21.38
2017-12-27T06:05:32.655Z,21.35
2017-12-27T06:06:32.665Z,21.35
2017-12-27T06:07:32.661Z,21.35
2017-12-27T06:08:32.672Z,21.32
2017-12-27T06:09:32.664Z,21.43
2017-12-27T06:10:32.667Z,21.42
2017-12-27T06:11:32.669Z,21.44
2017-12-27T06:12:32.670Z,21.35
2017-12-27T06:13:32.672Z,21.42
2017-12-27T06:14:32.674Z,21.29
2017-12-27T06:15:32.678Z,21.35
2017-12-27T06:16:32.679Z,21.35
2017-12-27T06:17:32.681Z,21.40
2017-12-27T06:18:32.682Z,21.34
2017-12-27T06:19:32.688Z,21.38
2017-12-27T06:20:32.693Z,21.42
2017-12-27T06:21:32.687Z,21.35
2017-12-27T06:22:32.690Z,21.37
2017-12-27T06:23:32.692Z,21.34
2017-12-27T06:24:32.698Z,21.38
2017-12-27T06:25:32.695Z,21.34
2017-12-27T06:26:32.697Z,21.42
2017-12-27T06:27:32.698Z,21.38
2017-12-27T06:28:32.701Z,21.38
2017-12-27T06:29:32.701Z,21.38
2017-12-27T06:30:32.705Z,21.34
2017-12-27T06:31:32.705Z,21.37
2017-12-27T06:32:32.709Z,21.40
2017-12-27T06:33:32.708Z,21.29
2017-12-27T06:34:32.711Z,21.42
2017-12-27T06:35:32.712Z,21.38
2017-12-27T06:36:32.714Z,21.31
2017-12-27T06:37:32.716Z,21.42
2017-12-27T06:38:32.714Z,21.44
2017-12-27T06:39:32.718Z,21.32
2017-12-27T06:40:32.719Z,21.32
2017-12-27T06:41:32.720Z,21.38
2017-12-27T06:42:32.723Z,21.31
2017-12-27T06:43:32.724Z,21.32
2017-12-27T06:44:32.727Z,21.40
2017-12-27T06:45:32.727Z,21.37
2017-12-27T06:46:32.729Z,21.37
2017-12-27T06:47:32.731Z,21.35
2017-12-27T06:48:32.740Z,21.35
2017-12-27T06:49:32.741Z,21.34
2017-12-27T06:50:32.742Z,21.37
2017-12-27T06:51:32.739Z,21.38
2017-12-27T06:52:32.741Z,21.32
2017-12-27T06:53:32.743Z,21.32
2017-12-27T06:54:32.743Z,21.42
2017-12-27T06:55:32.745Z,21.34
2017-12-27T06:56:32.746Z,21.29
2017-12-27T06:57:32.746Z,21.27
2017-12-27T06:58:32.747Z,21.34
2017-12-27T06:59:32.749Z,21.32
2017-12-27T07:00:32.750Z,21.34
2017-12-27T07:01:32.751Z,21.29
2017-12-27T07:02:32.752Z,21.35
2017-12-27T07:03:32.754Z,21.38
2017-12-27T07:04:32.756Z,21.43
2017-12-27T07:05:32.757Z,21.42
2017-12-27T07:06:32.759Z,21.37
2017-12-27T07:07:32.762Z,21.37
2017-12-27T07:08:32.762Z,21.34
2017-12-27T07:09:32.770Z,21.35
2017-12-27T07:10:32.765Z,21.42
2017-12-27T07:11:32.766Z,21.37
2017-12-27T07:12:32.769Z,21.40
2017-12-27T07:13:32.770Z,21.47
2017-12-27T07:14:32.772Z,21.44
2017-12-27T07:15:32.775Z,21.47
2017-12-27T07:16:32.776Z,21.44
2017-12-27T07:17:32.777Z,21.35
2017-12-27T07:18:32.778Z,21.32
2017-12-27T07:19:32.779Z,21.44
2017-12-27T07:20:32.782Z,21.46
2017-12-27T07:21:32.784Z,21.50
2017-12-27T07:22:32.786Z,21.38
2017-12-27T07:23:32.788Z,21.42
2017-12-27T07:24:32.789Z,21.49
2017-12-27T07:25:32.791Z,21.43
2017-12-27T07:26:32.792Z,21.53
2017-12-27T07:27:32.804Z,21.52
2017-12-27T07:28:32.797Z,21.42
2017-12-27T07:29:32.800Z,21.54
2017-12-27T07:30:32.800Z,21.47
2017-12-27T07:31:32.803Z,21.46
2017-12-27T07:32:32.813Z,21.46
2017-12-27T07:33:32.807Z,21.47
2017-12-27T07:34:32.808Z,21.44
2017-12-27T07:35:32.810Z,21.50
2017-12-27T07:36:32.813Z,21.42
2017-12-27T07:37:32.814Z,21.40
2017-12-27T07:38:32.817Z,21.37
2017-12-27T07:39:32.819Z,21.47
2017-12-27T07:40:32.822Z,21.44
2017-12-27T07:41:32.822Z,21.43
2017-12-27T07:42:32.824Z,21.53
2017-12-27T07:43:32.827Z,21.53
2017-12-27T07:44:32.829Z,21.49
2017-12-27T07:45:32.830Z,21.49
2017-12-27T07:46:32.832Z,21.46
2017-12-27T07:47:32.835Z,21.42
2017-12-27T07:48:32.837Z,21.47
2017-12-27T07:49:32.839Z,21.61
2017-12-27T07:50:32.844Z,21.61
2017-12-27T07:51:32.844Z,21.74
2017-12-27T07:52:32.861Z,21.77
2017-12-27T07:53:32.862Z,21.82
2017-12-27T07:54:32.852Z,21.82
2017-12-27T07:55:32.856Z,21.90
2017-12-27T07:56:32.857Z,21.82
2017-12-27T07:57:32.861Z,21.84
2017-12-27T07:58:32.862Z,21.91
2017-12-27T07:59:32.865Z,21.86
2017-12-27T08:00:32.868Z,21.82
2017-12-27T08:01:32.870Z,21.86
2017-12-27T08:02:32.873Z,22.03
2017-12-27T08:03:32.875Z,21.77
2017-12-27T08:04:32.878Z,21.69
2017-12-27T08:05:32.881Z,21.64
2017-12-27T08:06:32.882Z,21.80
2017-12-27T08:07:32.885Z,21.62
2017-12-27T08:08:32.888Z,21.64
2017-12-27T08:09:32.889Z,21.54
2017-12-27T08:10:32.892Z,21.64
2017-12-27T08:11:32.894Z,21.61
2017-12-27T08:12:32.896Z,21.53
2017-12-27T08:13:32.905Z,21.53
2017-12-27T08:14:32.902Z,21.67
2017-12-27T08:15:32.906Z,21.59
2017-12-27T08:16:32.906Z,21.68
2017-12-27T08:17:32.906Z,21.58
2017-12-27T08:18:32.911Z,21.54
2017-12-27T08:19:32.910Z,21.50
2017-12-27T08:20:32.913Z,21.46
2017-12-27T08:21:32.918Z,21.50
2017-12-27T08:22:32.916Z,21.49
2017-12-27T08:23:32.918Z,21.58
2017-12-27T08:24:32.920Z,21.50
2017-12-27T08:25:32.924Z,21.56
2017-12-27T08:26:32.923Z,21.43
2017-12-27T08:27:32.928Z,21.56
2017-12-27T08:28:32.929Z,21.61
2017-12-27T08:29:32.928Z,21.65
2017-12-27T08:30:32.942Z,21.56
2017-12-27T08:31:32.936Z,21.56
2017-12-27T08:32:32.938Z,21.59
2017-12-27T08:33:32.937Z,21.46
2017-12-27T08:34:32.941Z,21.44
2017-12-27T08:35:32.943Z,21.38
2017-12-27T08:36:32.951Z,21.44
2017-12-27T08:37:32.952Z,21.53
2017-12-27T08:38:32.946Z,21.52
2017-12-27T08:39:32.948Z,21.44
2017-12-27T08:40:32.950Z,21.42
2017-12-27T08:41:32.950Z,21.37
2017-12-27T08:42:32.952Z,21.47
2017-12-27T08:43:32.953Z,21.49
2017-12-27T08:44:32.958Z,21.53
2017-12-27T08:45:32.957Z,21.47
2017-12-27T08:46:32.964Z,21.53
2017-12-27T08:47:32.961Z,21.52
2017-12-27T08:48:32.964Z,21.50
2017-12-27T08:49:32.964Z,21.42
2017-12-27T08:50:32.966Z,21.46
2017-12-27T08:51:32.968Z,21.53
2017-12-27T08:52:32.970Z,21.56
2017-12-27T08:53:32.971Z,21.42
2017-12-27T08:54:32.973Z,21.53
2017-12-27T08:55:32.975Z,21.53
2017-12-27T08:56:32.976Z,21.46
2017-12-27T08:57:32.978Z,21.52
2017-12-27T08:58:32.979Z,21.47
2017-12-27T08:59:32.982Z,21.50
2017-12-27T09:00:32.985Z,21.56
2017-12-27T09:01:32.985Z,21.53
2017-12-27T09:02:32.988Z,21.53
2017-12-27T09:03:32.990Z,21.59
2017-12-27T09:04:32.993Z,21.52
2017-12-27T09:05:32.994Z,21.58
2017-12-27T09:06:32.995Z,21.56
2017-12-27T09:07:32.998Z,21.52
2017-12-27T09:08:33.000Z,21.49
2017-12-27T09:09:33.002Z,21.54
2017-12-27T09:10:33.014Z,21.53
2017-12-27T09:11:33.007Z,21.58
2017-12-27T09:12:33.017Z,21.54
2017-12-27T09:13:33.009Z,21.53
2017-12-27T09:14:33.058Z,21.61
2017-12-27T09:15:33.018Z,21.53
2017-12-27T09:16:33.019Z,21.52
2017-12-27T09:17:33.017Z,21.50
2017-12-27T09:18:33.022Z,21.50
2017-12-27T09:19:33.030Z,21.54
2017-12-27T09:20:33.024Z,21.56
2017-12-27T09:21:33.027Z,21.54
2017-12-27T09:22:33.031Z,21.59
2017-12-27T09:23:33.031Z,21.54
2017-12-27T09:24:33.032Z,21.50
2017-12-27T09:25:33.032Z,21.50
2017-12-27T09:26:33.038Z,21.46
2017-12-27T09:27:33.039Z,21.54
2017-12-27T09:28:33.043Z,21.47
2017-12-27T09:29:33.040Z,21.49
2017-12-27T09:30:33.042Z,21.44
2017-12-27T09:31:33.047Z,21.42
2017-12-27T09:32:33.046Z,21.49
2017-12-27T09:33:33.048Z,21.44
2017-12-27T09:34:33.050Z,21.53
2017-12-27T09:35:33.051Z,21.46
2017-12-27T09:36:33.055Z,21.44
2017-12-27T09:37:33.056Z,21.58
2017-12-27T09:38:33.058Z,21.54
2017-12-27T09:39:33.059Z,21.56
2017-12-27T09:40:33.060Z,21.56
2017-12-27T09:41:33.061Z,21.54
2017-12-27T09:42:33.065Z,21.47
2017-12-27T09:43:33.066Z,21.61
2017-12-27T09:44:33.069Z,21.49
2017-12-27T09:45:33.070Z,21.50
2017-12-27T09:46:33.071Z,21.52
2017-12-27T09:47:33.076Z,21.53
2017-12-27T09:48:33.077Z,21.54
2017-12-27T09:49:33.079Z,21.67
2017-12-27T09:50:33.081Z,21.52
2017-12-27T09:51:33.083Z,21.65
2017-12-27T09:52:33.086Z,21.68
2017-12-27T09:53:33.087Z,21.59
2017-12-27T09:54:33.089Z,21.64
2017-12-27T09:55:33.093Z,21.56
2017-12-27T09:56:33.093Z,21.62
2017-12-27T09:57:33.096Z,21.59
2017-12-27T09:58:33.098Z,21.65
2017-12-27T09:59:33.100Z,21.67
2017-12-27T10:00:33.105Z,21.69
2017-12-27T10:01:33.105Z,21.59
2017-12-27T10:02:33.108Z,21.67
2017-12-27T10:03:33.109Z,21.62
2017-12-27T10:04:33.123Z,21.65
2017-12-27T10:05:33.115Z,21.65
2017-12-27T10:06:33.117Z,21.75
2017-12-27T10:07:33.120Z,21.68
2017-12-27T10:08:33.121Z,21.71
2017-12-27T10:09:33.125Z,21.74
2017-12-27T10:10:33.126Z,21.71
2017-12-27T10:11:33.130Z,21.74
2017-12-27T10:12:33.138Z,21.77
2017-12-27T10:13:33.134Z,21.74
2017-12-27T10:14:33.137Z,21.77
2017-12-27T10:15:33.139Z,21.77
2017-12-27T10:16:33.142Z,21.75
2017-12-27T10:17:33.145Z,21.75
2017-12-27T10:18:33.145Z,21.75
2017-12-27T10:19:33.149Z,21.75
2017-12-27T10:20:33.151Z,21.77
2017-12-27T10:21:33.153Z,21.82
2017-12-27T10:22:33.156Z,21.77
2017-12-27T10:23:33.159Z,21.82
2017-12-27T10:24:33.161Z,21.82
2017-12-27T10:25:33.164Z,21.79
2017-12-27T10:26:33.166Z,21.84
2017-12-27T10:27:33.168Z,21.83
2017-12-27T10:28:33.173Z,21.82
2017-12-27T10:29:33.173Z,21.84
2017-12-27T10:30:33.176Z,21.79
2017-12-27T10:31:33.182Z,21.82
2017-12-27T10:32:33.182Z,21.77
2017-12-27T10:33:33.184Z,21.79
2017-12-27T10:34:33.186Z,21.80
2017-12-27T10:35:33.189Z,21.80
2017-12-27T10:36:33.194Z,21.88
2017-12-27T10:37:33.194Z,21.84
2017-12-27T10:38:33.199Z,21.80
2017-12-27T10:39:33.200Z,21.75
2017-12-27T10:40:33.203Z,21.75
2017-12-27T10:41:33.202Z,21.71
2017-12-27T10:42:33.206Z,21.83
2017-12-27T10:43:33.209Z,21.80
2017-12-27T10:44:33.212Z,21.71
2017-12-27T10:45:33.213Z,21.74
2017-12-27T10:46:33.217Z,21.77
2017-12-27T10:47:33.219Z,21.68
2017-12-27T10:48:33.223Z,21.65
2017-12-27T10:49:33.222Z,21.75
2017-12-27T10:50:33.226Z,21.64
2017-12-27T10:51:33.227Z,21.74
2017-12-27T10:52:33.231Z,21.72
2017-12-27T10:53:33.231Z,21.62
2017-12-27T10:54:33.235Z,21.74
2017-12-27T10:55:33.263Z,21.74
2017-12-27T10:56:33.238Z,21.68
2017-12-27T10:57:33.242Z,21.68
2017-12-27T10:58:33.242Z,21.77
2017-12-27T10:59:33.244Z,21.67
2017-12-27T11:00:33.247Z,21.79
2017-12-27T11:01:33.248Z,21.77
2017-12-27T11:02:33.251Z,21.74
2017-12-27T11:03:33.254Z,21.72
2017-12-27T11:04:33.258Z,21.74
2017-12-27T11:05:33.255Z,21.75
2017-12-27T11:06:33.262Z,21.77
2017-12-27T11:07:33.261Z,21.72
2017-12-27T11:08:33.266Z,21.80
2017-12-27T11:09:33.266Z,21.79
2017-12-27T11:10:33.269Z,21.79
2017-12-27T11:11:33.270Z,21.82
2017-12-27T11:12:33.274Z,21.82
2017-12-27T11:13:33.277Z,21.77
2017-12-27T11:14:33.278Z,21.80
2017-12-27T11:15:33.282Z,21.80
2017-12-27T11:16:33.284Z,21.80
2017-12-27T11:17:33.288Z,21.84
2017-12-27T11:18:33.290Z,21.83
2017-12-27T11:19:33.294Z,21.77
2017-12-27T11:20:33.294Z,21.80
2017-12-27T11:21:33.296Z,21.77
2017-12-27T11:22:33.300Z,21.84
2017-12-27T11:23:33.301Z,21.84
2017-12-27T11:24:33.306Z,21.84
2017-12-27T11:25:33.306Z,21.80
2017-12-27T11:26:33.309Z,21.90
2017-12-27T11:27:33.315Z,21.82
2017-12-27T11:28:33.316Z,21.86
2017-12-27T11:29:33.317Z,21.88
2017-12-27T11:30:33.322Z,21.90
2017-12-27T11:31:33.322Z,21.88
2017-12-27T11:32:33.326Z,21.92
2017-12-27T11:33:33.327Z,21.84
2017-12-27T11:34:33.330Z,21.86
2017-12-27T11:35:33.333Z,21.86
2017-12-27T11:36:33.336Z,21.80
2017-12-27T11:37:33.338Z,21.79
2017-12-27T11:38:33.339Z,21.84
2017-12-27T11:39:33.343Z,21.88
2017-12-27T11:40:33.346Z,21.86
2017-12-27T11:41:33.347Z,21.86
2017-12-27T11:42:33.350Z,21.86
2017-12-27T11:43:33.353Z,21.84
2017-12-27T11:44:33.359Z,21.91
2017-12-27T11:45:33.360Z,21.86
2017-12-27T11:46:33.360Z,21.86
2017-12-27T11:47:33.364Z,21.91
2017-12-27T11:48:33.366Z,21.88
2017-12-27T11:49:33.368Z,21.83
2017-12-27T11:50:33.371Z,21.92
2017-12-27T11:51:33.373Z,21.90
2017-12-27T11:52:33.376Z,21.84
2017-12-27T11:53:33.378Z,21.86
2017-12-27T11:54:33.381Z,21.91
2017-12-27T11:55:33.384Z,21.88
2017-12-27T11:56:33.387Z,21.86
2017-12-27T11:57:33.388Z,21.83
2017-12-27T11:58:33.394Z,21.84
2017-12-27T11:59:33.394Z,21.92
2017-12-27T12:00:33.398Z,21.92
2017-12-27T12:01:33.399Z,21.86
2017-12-27T12:02:33.402Z,21.83
2017-12-27T12:03:33.405Z,21.92
2017-12-27T12:04:33.407Z,21.90
2017-12-27T12:05:33.410Z,21.83
2017-12-27T12:06:33.418Z,21.90
2017-12-27T12:07:33.414Z,21.88
2017-12-27T12:08:33.416Z,21.92
2017-12-27T12:09:33.418Z,21.92
2017-12-27T12:10:33.422Z,21.82
2017-12-27T12:11:33.425Z,21.88
2017-12-27T12:12:33.427Z,21.90
2017-12-27T12:13:33.429Z,21.92
2017-12-27T12:14:33.432Z,21.90
2017-12-27T12:15:33.435Z,21.86
2017-12-27T12:16:33.437Z,21.94
2017-12-27T12:17:33.439Z,21.92
2017-12-27T12:18:33.441Z,21.94
2017-12-27T12:19:33.445Z,21.88
2017-12-27T12:20:33.450Z,21.88
2017-12-27T12:21:33.451Z,21.94
2017-12-27T12:22:33.453Z,21.94
2017-12-27T12:23:33.455Z,21.96
2017-12-27T12:24:33.458Z,21.88
2017-12-27T12:25:33.460Z,21.92
2017-12-27T12:26:33.462Z,21.91
2017-12-27T12:27:33.465Z,21.84
2017-12-27T12:28:33.468Z,21.94
2017-12-27T12:29:33.469Z,21.86
2017-12-27T12:30:33.472Z,21.91
2017-12-27T12:31:33.483Z,21.96
2017-12-27T12:32:33.483Z,21.98
2017-12-27T12:33:33.485Z,21.94
2017-12-27T12:34:33.485Z,21.91
2017-12-27T12:35:33.486Z,21.96
2017-12-27T12:36:33.489Z,21.92
2017-12-27T12:37:33.498Z,21.98
2017-12-27T12:38:33.493Z,21.92
2017-12-27T12:39:33.495Z,21.91
2017-12-27T12:40:33.508Z,21.82
2017-12-27T12:41:33.499Z,21.91
2017-12-27T12:42:33.502Z,21.86
2017-12-27T12:43:33.505Z,21.88
2017-12-27T12:44:33.507Z,21.91
2017-12-27T12:45:33.511Z,21.88
2017-12-27T12:46:33.511Z,21.91
2017-12-27T12:47:33.523Z,21.91
2017-12-27T12:48:33.517Z,21.86
2017-12-27T12:49:33.518Z,21.99
2017-12-27T12:50:33.522Z,21.86
2017-12-27T12:51:33.528Z,21.86
2017-12-27T12:52:33.526Z,21.96